sensor_id;sensor_type;location;lat;lon;timestamp;P1;durP1;ratioP1;P2;durP2;ratioP2
63050;SDS011;49136;47.416;19.402;2023-02-28T00:00:23;12.52;;;4.80;;
63050;SDS011;49136;47.416;19.402;2023-02-28T00:02:50;14.45;;;4.93;;
63050;SDS011;49136;47.416;19.402;2023-02-28T00:05:17;7.50;;;4.63;;
63050;SDS011;49136;47.416;19.402;2023-02-28T00:07:44;14.52;;;5.82;;
63050;SDS011;49136;47.416;19.402;2023-02-28T00:10:11;9.82;;;5.00;;
63050;SDS011;49136;47.416;19.402;2023-02-28T00:12:38;12.15;;;5.20;;
63050;SDS011;49136;47.416;19.402;2023-02-28T00:15:10;7.97;;;3.38;;
63050;SDS011;49136;47.416;19.402;2023-02-28T00:17:37;11.65;;;5.63;;
63050;SDS011;49136;47.416;19.402;2023-02-28T00:20:03;7.75;;;3.03;;
63050;SDS011;49136;47.416;19.402;2023-02-28T00:22:29;12.15;;;4.55;;
63050;SDS011;49136;47.416;19.402;2023-02-28T00:24:55;17.75;;;7.35;;
63050;SDS011;49136;47.416;19.402;2023-02-28T00:27:20;28.20;;;7.22;;
63050;SDS011;49136;47.416;19.402;2023-02-28T00:29:46;15.07;;;4.28;;
63050;SDS011;49136;47.416;19.402;2023-02-28T00:32:12;16.10;;;4.82;;
63050;SDS011;49136;47.416;19.402;2023-02-28T00:34:37;13.50;;;4.05;;
63050;SDS011;49136;47.416;19.402;2023-02-28T00:37:06;9.07;;;5.40;;
63050;SDS011;49136;47.416;19.402;2023-02-28T00:39:33;12.40;;;5.75;;
63050;SDS011;49136;47.416;19.402;2023-02-28T00:42:00;10.95;;;4.43;;
63050;SDS011;49136;47.416;19.402;2023-02-28T00:44:27;9.63;;;4.72;;
63050;SDS011;49136;47.416;19.402;2023-02-28T00:46:52;13.93;;;7.28;;
63050;SDS011;49136;47.416;19.402;2023-02-28T00:49:19;12.20;;;3.45;;
63050;SDS011;49136;47.416;19.402;2023-02-28T00:51:45;10.63;;;6.07;;
63050;SDS011;49136;47.416;19.402;2023-02-28T00:54:11;26.42;;;7.40;;
63050;SDS011;49136;47.416;19.402;2023-02-28T00:56:36;22.95;;;7.32;;
63050;SDS011;49136;47.416;19.402;2023-02-28T00:59:02;13.50;;;5.65;;
63050;SDS011;49136;47.416;19.402;2023-02-28T01:01:27;9.43;;;4.43;;
63050;SDS011;49136;47.416;19.402;2023-02-28T01:03:53;18.15;;;5.25;;
63050;SDS011;49136;47.416;19.402;2023-02-28T01:06:18;23.08;;;5.13;;
63050;SDS011;49136;47.416;19.402;2023-02-28T01:08:44;14.63;;;4.97;;
63050;SDS011;49136;47.416;19.402;2023-02-28T01:11:10;13.90;;;3.50;;
63050;SDS011;49136;47.416;19.402;2023-02-28T01:13:36;13.07;;;4.55;;
63050;SDS011;49136;47.416;19.402;2023-02-28T01:16:02;11.45;;;4.28;;
63050;SDS011;49136;47.416;19.402;2023-02-28T01:18:28;10.85;;;4.43;;
63050;SDS011;49136;47.416;19.402;2023-02-28T01:20:53;13.05;;;4.70;;
63050;SDS011;49136;47.416;19.402;2023-02-28T01:23:19;17.23;;;6.28;;
63050;SDS011;49136;47.416;19.402;2023-02-28T01:25:46;16.45;;;5.53;;
63050;SDS011;49136;47.416;19.402;2023-02-28T01:28:12;17.00;;;5.07;;
63050;SDS011;49136;47.416;19.402;2023-02-28T01:30:37;24.33;;;5.57;;
63050;SDS011;49136;47.416;19.402;2023-02-28T01:33:03;8.77;;;5.53;;
63050;SDS011;49136;47.416;19.402;2023-02-28T01:35:28;13.23;;;6.22;;
63050;SDS011;49136;47.416;19.402;2023-02-28T01:37:53;19.83;;;7.72;;
63050;SDS011;49136;47.416;19.402;2023-02-28T01:40:19;18.40;;;5.57;;
63050;SDS011;49136;47.416;19.402;2023-02-28T01:42:45;16.25;;;5.82;;
63050;SDS011;49136;47.416;19.402;2023-02-28T01:45:18;10.23;;;6.15;;
63050;SDS011;49136;47.416;19.402;2023-02-28T01:47:53;14.63;;;4.85;;
63050;SDS011;49136;47.416;19.402;2023-02-28T01:50:23;15.98;;;6.63;;
63050;SDS011;49136;47.416;19.402;2023-02-28T01:52:53;7.72;;;4.28;;
63050;SDS011;49136;47.416;19.402;2023-02-28T01:55:21;10.35;;;4.80;;
63050;SDS011;49136;47.416;19.402;2023-02-28T01:57:48;13.32;;;5.43;;
63050;SDS011;49136;47.416;19.402;2023-02-28T02:00:18;9.93;;;4.50;;
63050;SDS011;49136;47.416;19.402;2023-02-28T02:02:49;9.75;;;5.28;;
63050;SDS011;49136;47.416;19.402;2023-02-28T02:05:18;10.52;;;4.35;;
63050;SDS011;49136;47.416;19.402;2023-02-28T02:07:45;10.38;;;4.70;;
63050;SDS011;49136;47.416;19.402;2023-02-28T02:10:18;10.18;;;4.95;;
63050;SDS011;49136;47.416;19.402;2023-02-28T02:12:54;14.50;;;5.25;;
63050;SDS011;49136;47.416;19.402;2023-02-28T02:15:57;5.43;;;3.65;;
63050;SDS011;49136;47.416;19.402;2023-02-28T02:18:43;16.10;;;4.72;;
63050;SDS011;49136;47.416;19.402;2023-02-28T02:30:14;12.55;;;4.00;;
63050;SDS011;49136;47.416;19.402;2023-02-28T02:33:01;5.07;;;3.08;;
63050;SDS011;49136;47.416;19.402;2023-02-28T02:35:40;6.32;;;4.05;;
63050;SDS011;49136;47.416;19.402;2023-02-28T02:40:54;10.43;;;4.00;;
63050;SDS011;49136;47.416;19.402;2023-02-28T02:43:29;7.20;;;4.13;;
63050;SDS011;49136;47.416;19.402;2023-02-28T02:46:04;4.90;;;3.58;;
63050;SDS011;49136;47.416;19.402;2023-02-28T02:48:35;4.95;;;3.38;;
63050;SDS011;49136;47.416;19.402;2023-02-28T02:51:04;8.32;;;3.70;;
63050;SDS011;49136;47.416;19.402;2023-02-28T02:53:37;9.95;;;3.67;;
63050;SDS011;49136;47.416;19.402;2023-02-28T02:56:14;10.38;;;4.47;;
63050;SDS011;49136;47.416;19.402;2023-02-28T02:58:43;10.32;;;2.72;;
63050;SDS011;49136;47.416;19.402;2023-02-28T03:01:12;6.28;;;4.72;;
63050;SDS011;49136;47.416;19.402;2023-02-28T03:03:52;9.85;;;2.78;;
63050;SDS011;49136;47.416;19.402;2023-02-28T03:06:25;10.88;;;2.60;;
63050;SDS011;49136;47.416;19.402;2023-02-28T03:08:51;18.40;;;4.18;;
63050;SDS011;49136;47.416;19.402;2023-02-28T03:11:17;5.07;;;3.83;;
63050;SDS011;49136;47.416;19.402;2023-02-28T03:19:23;5.15;;;2.78;;
63050;SDS011;49136;47.416;19.402;2023-02-28T03:25:01;7.72;;;3.22;;
63050;SDS011;49136;47.416;19.402;2023-02-28T03:27:40;10.63;;;4.20;;
63050;SDS011;49136;47.416;19.402;2023-02-28T03:32:53;11.35;;;5.63;;
63050;SDS011;49136;47.416;19.402;2023-02-28T03:35:37;8.95;;;4.60;;
63050;SDS011;49136;47.416;19.402;2023-02-28T03:38:10;13.88;;;4.63;;
63050;SDS011;49136;47.416;19.402;2023-02-28T03:40:45;7.25;;;4.05;;
63050;SDS011;49136;47.416;19.402;2023-02-28T03:43:18;3.60;;;3.30;;
63050;SDS011;49136;47.416;19.402;2023-02-28T03:45:48;19.08;;;2.45;;
63050;SDS011;49136;47.416;19.402;2023-02-28T03:48:24;7.13;;;3.08;;
63050;SDS011;49136;47.416;19.402;2023-02-28T03:51:15;10.68;;;4.00;;
63050;SDS011;49136;47.416;19.402;2023-02-28T03:53:50;11.45;;;4.40;;
63050;SDS011;49136;47.416;19.402;2023-02-28T03:56:24;6.72;;;3.45;;
63050;SDS011;49136;47.416;19.402;2023-02-28T04:01:47;9.20;;;3.13;;
63050;SDS011;49136;47.416;19.402;2023-02-28T04:04:14;7.85;;;2.80;;
63050;SDS011;49136;47.416;19.402;2023-02-28T04:06:41;3.85;;;2.20;;
63050;SDS011;49136;47.416;19.402;2023-02-28T04:09:09;5.70;;;2.53;;
63050;SDS011;49136;47.416;19.402;2023-02-28T04:11:48;6.13;;;2.72;;
63050;SDS011;49136;47.416;19.402;2023-02-28T04:14:19;11.23;;;2.38;;
63050;SDS011;49136;47.416;19.402;2023-02-28T04:16:44;4.80;;;3.03;;
63050;SDS011;49136;47.416;19.402;2023-02-28T04:19:11;18.25;;;3.67;;
63050;SDS011;49136;47.416;19.402;2023-02-28T04:21:38;6.65;;;3.30;;
63050;SDS011;49136;47.416;19.402;2023-02-28T04:24:06;14.95;;;4.78;;
63050;SDS011;49136;47.416;19.402;2023-02-28T04:26:34;15.50;;;4.38;;
63050;SDS011;49136;47.416;19.402;2023-02-28T04:29:01;4.80;;;2.63;;
63050;SDS011;49136;47.416;19.402;2023-02-28T04:31:28;8.27;;;4.88;;
63050;SDS011;49136;47.416;19.402;2023-02-28T04:33:54;6.13;;;3.22;;
63050;SDS011;49136;47.416;19.402;2023-02-28T04:36:20;8.43;;;2.90;;
63050;SDS011;49136;47.416;19.402;2023-02-28T04:38:45;6.50;;;3.83;;
63050;SDS011;49136;47.416;19.402;2023-02-28T04:41:11;6.43;;;3.00;;
63050;SDS011;49136;47.416;19.402;2023-02-28T04:43:37;11.43;;;3.47;;
63050;SDS011;49136;47.416;19.402;2023-02-28T04:46:04;11.38;;;5.07;;
63050;SDS011;49136;47.416;19.402;2023-02-28T04:48:31;15.85;;;5.55;;
63050;SDS011;49136;47.416;19.402;2023-02-28T04:51:05;11.32;;;4.43;;
63050;SDS011;49136;47.416;19.402;2023-02-28T04:53:35;9.50;;;4.00;;
63050;SDS011;49136;47.416;19.402;2023-02-28T04:56:05;7.47;;;3.00;;
63050;SDS011;49136;47.416;19.402;2023-02-28T04:58:31;11.32;;;4.85;;
63050;SDS011;49136;47.416;19.402;2023-02-28T05:01:04;6.20;;;4.22;;
63050;SDS011;49136;47.416;19.402;2023-02-28T05:03:39;11.35;;;3.33;;
63050;SDS011;49136;47.416;19.402;2023-02-28T05:06:08;14.07;;;4.93;;
63050;SDS011;49136;47.416;19.402;2023-02-28T05:08:34;14.95;;;4.22;;
63050;SDS011;49136;47.416;19.402;2023-02-28T05:11:00;6.28;;;2.55;;
63050;SDS011;49136;47.416;19.402;2023-02-28T05:13:26;7.07;;;2.63;;
63050;SDS011;49136;47.416;19.402;2023-02-28T05:15:52;10.77;;;4.65;;
63050;SDS011;49136;47.416;19.402;2023-02-28T05:18:18;10.32;;;2.83;;
63050;SDS011;49136;47.416;19.402;2023-02-28T05:20:43;7.32;;;2.85;;
63050;SDS011;49136;47.416;19.402;2023-02-28T05:23:11;12.70;;;3.83;;
63050;SDS011;49136;47.416;19.402;2023-02-28T05:25:37;7.60;;;3.75;;
63050;SDS011;49136;47.416;19.402;2023-02-28T05:28:03;12.90;;;3.00;;
63050;SDS011;49136;47.416;19.402;2023-02-28T05:30:29;8.35;;;2.33;;
63050;SDS011;49136;47.416;19.402;2023-02-28T05:32:55;3.58;;;2.25;;
63050;SDS011;49136;47.416;19.402;2023-02-28T05:35:20;7.43;;;3.67;;
63050;SDS011;49136;47.416;19.402;2023-02-28T05:37:45;3.95;;;2.17;;
63050;SDS011;49136;47.416;19.402;2023-02-28T05:40:14;3.25;;;2.17;;
63050;SDS011;49136;47.416;19.402;2023-02-28T05:42:40;4.80;;;2.63;;
63050;SDS011;49136;47.416;19.402;2023-02-28T05:45:06;10.05;;;2.53;;
63050;SDS011;49136;47.416;19.402;2023-02-28T05:47:33;6.65;;;2.70;;
63050;SDS011;49136;47.416;19.402;2023-02-28T05:49:59;10.77;;;2.53;;
63050;SDS011;49136;47.416;19.402;2023-02-28T05:52:25;3.65;;;1.73;;
63050;SDS011;49136;47.416;19.402;2023-02-28T05:54:50;15.10;;;3.08;;
63050;SDS011;49136;47.416;19.402;2023-02-28T05:57:16;7.20;;;3.42;;
63050;SDS011;49136;47.416;19.402;2023-02-28T05:59:41;4.07;;;2.35;;
63050;SDS011;49136;47.416;19.402;2023-02-28T06:02:16;10.70;;;3.78;;
63050;SDS011;49136;47.416;19.402;2023-02-28T06:04:43;2.10;;;1.83;;
63050;SDS011;49136;47.416;19.402;2023-02-28T06:07:09;6.78;;;3.28;;
63050;SDS011;49136;47.416;19.402;2023-02-28T06:09:35;11.00;;;3.20;;
63050;SDS011;49136;47.416;19.402;2023-02-28T06:12:02;3.75;;;2.53;;
63050;SDS011;49136;47.416;19.402;2023-02-28T06:14:31;8.73;;;3.92;;
63050;SDS011;49136;47.416;19.402;2023-02-28T06:16:57;7.43;;;3.05;;
63050;SDS011;49136;47.416;19.402;2023-02-28T06:19:23;7.03;;;2.78;;
63050;SDS011;49136;47.416;19.402;2023-02-28T06:21:50;6.30;;;2.47;;
63050;SDS011;49136;47.416;19.402;2023-02-28T06:24:18;4.30;;;2.78;;
63050;SDS011;49136;47.416;19.402;2023-02-28T06:26:47;3.40;;;2.47;;
63050;SDS011;49136;47.416;19.402;2023-02-28T06:29:13;7.70;;;2.88;;
63050;SDS011;49136;47.416;19.402;2023-02-28T06:31:43;7.80;;;3.72;;
63050;SDS011;49136;47.416;19.402;2023-02-28T06:34:10;18.08;;;6.93;;
63050;SDS011;49136;47.416;19.402;2023-02-28T06:36:39;23.73;;;5.93;;
63050;SDS011;49136;47.416;19.402;2023-02-28T06:39:05;7.80;;;4.03;;
63050;SDS011;49136;47.416;19.402;2023-02-28T06:41:31;6.93;;;3.03;;
63050;SDS011;49136;47.416;19.402;2023-02-28T06:44:12;5.22;;;3.33;;
63050;SDS011;49136;47.416;19.402;2023-02-28T06:46:40;9.20;;;2.95;;
63050;SDS011;49136;47.416;19.402;2023-02-28T06:49:07;12.75;;;3.65;;
63050;SDS011;49136;47.416;19.402;2023-02-28T06:51:37;3.45;;;2.08;;
63050;SDS011;49136;47.416;19.402;2023-02-28T06:54:04;9.75;;;4.07;;
63050;SDS011;49136;47.416;19.402;2023-02-28T06:56:30;5.03;;;2.80;;
63050;SDS011;49136;47.416;19.402;2023-02-28T06:58:56;5.13;;;2.85;;
63050;SDS011;49136;47.416;19.402;2023-02-28T07:01:22;8.82;;;3.42;;
63050;SDS011;49136;47.416;19.402;2023-02-28T07:03:48;8.13;;;2.78;;
63050;SDS011;49136;47.416;19.402;2023-02-28T07:06:17;4.68;;;3.08;;
63050;SDS011;49136;47.416;19.402;2023-02-28T07:08:47;4.35;;;2.83;;
63050;SDS011;49136;47.416;19.402;2023-02-28T07:11:13;4.88;;;2.60;;
63050;SDS011;49136;47.416;19.402;2023-02-28T07:13:39;3.97;;;3.30;;
63050;SDS011;49136;47.416;19.402;2023-02-28T07:16:05;6.75;;;3.58;;
63050;SDS011;49136;47.416;19.402;2023-02-28T07:18:33;3.53;;;1.95;;
63050;SDS011;49136;47.416;19.402;2023-02-28T07:21:03;5.00;;;2.30;;
63050;SDS011;49136;47.416;19.402;2023-02-28T07:23:31;6.68;;;3.67;;
63050;SDS011;49136;47.416;19.402;2023-02-28T07:25:57;4.18;;;2.67;;
63050;SDS011;49136;47.416;19.402;2023-02-28T07:28:22;4.93;;;2.17;;
63050;SDS011;49136;47.416;19.402;2023-02-28T07:30:48;4.47;;;2.50;;
63050;SDS011;49136;47.416;19.402;2023-02-28T07:33:14;10.68;;;3.03;;
63050;SDS011;49136;47.416;19.402;2023-02-28T07:35:39;7.63;;;2.47;;
63050;SDS011;49136;47.416;19.402;2023-02-28T07:38:05;3.40;;;2.85;;
63050;SDS011;49136;47.416;19.402;2023-02-28T07:40:32;5.03;;;1.95;;
63050;SDS011;49136;47.416;19.402;2023-02-28T07:42:59;8.02;;;3.60;;
63050;SDS011;49136;47.416;19.402;2023-02-28T07:45:25;12.02;;;2.83;;
63050;SDS011;49136;47.416;19.402;2023-02-28T07:47:51;6.20;;;2.22;;
63050;SDS011;49136;47.416;19.402;2023-02-28T07:50:16;6.63;;;3.20;;
63050;SDS011;49136;47.416;19.402;2023-02-28T07:52:42;5.55;;;1.55;;
63050;SDS011;49136;47.416;19.402;2023-02-28T07:55:08;3.75;;;1.75;;
63050;SDS011;49136;47.416;19.402;2023-02-28T07:57:34;4.32;;;2.72;;
63050;SDS011;49136;47.416;19.402;2023-02-28T08:00:00;2.78;;;1.98;;
63050;SDS011;49136;47.416;19.402;2023-02-28T08:02:26;4.03;;;1.85;;
63050;SDS011;49136;47.416;19.402;2023-02-28T08:04:51;6.95;;;1.73;;
63050;SDS011;49136;47.416;19.402;2023-02-28T08:07:17;3.33;;;2.20;;
63050;SDS011;49136;47.416;19.402;2023-02-28T08:09:43;6.85;;;1.95;;
63050;SDS011;49136;47.416;19.402;2023-02-28T08:12:09;10.05;;;3.20;;
63050;SDS011;49136;47.416;19.402;2023-02-28T08:14:35;5.68;;;2.10;;
63050;SDS011;49136;47.416;19.402;2023-02-28T08:17:02;4.25;;;2.22;;
63050;SDS011;49136;47.416;19.402;2023-02-28T08:19:28;7.60;;;2.88;;
63050;SDS011;49136;47.416;19.402;2023-02-28T08:21:54;4.97;;;1.95;;
63050;SDS011;49136;47.416;19.402;2023-02-28T08:24:19;10.02;;;2.33;;
63050;SDS011;49136;47.416;19.402;2023-02-28T08:26:45;2.53;;;1.55;;
63050;SDS011;49136;47.416;19.402;2023-02-28T08:29:10;7.10;;;3.20;;
63050;SDS011;49136;47.416;19.402;2023-02-28T08:31:36;7.05;;;2.58;;
63050;SDS011;49136;47.416;19.402;2023-02-28T08:34:08;4.50;;;2.55;;
63050;SDS011;49136;47.416;19.402;2023-02-28T08:36:35;5.20;;;2.40;;
63050;SDS011;49136;47.416;19.402;2023-02-28T08:39:01;5.07;;;2.90;;
63050;SDS011;49136;47.416;19.402;2023-02-28T08:41:27;5.68;;;2.95;;
63050;SDS011;49136;47.416;19.402;2023-02-28T08:43:53;5.50;;;3.30;;
63050;SDS011;49136;47.416;19.402;2023-02-28T08:46:18;3.90;;;2.33;;
63050;SDS011;49136;47.416;19.402;2023-02-28T08:48:44;3.88;;;1.58;;
63050;SDS011;49136;47.416;19.402;2023-02-28T08:51:15;7.22;;;2.47;;
63050;SDS011;49136;47.416;19.402;2023-02-28T08:53:43;4.00;;;2.65;;
63050;SDS011;49136;47.416;19.402;2023-02-28T08:56:13;6.20;;;3.28;;
63050;SDS011;49136;47.416;19.402;2023-02-28T08:58:41;4.55;;;2.30;;
63050;SDS011;49136;47.416;19.402;2023-02-28T09:01:08;7.47;;;3.83;;
63050;SDS011;49136;47.416;19.402;2023-02-28T09:03:35;3.72;;;2.15;;
63050;SDS011;49136;47.416;19.402;2023-02-28T09:06:00;9.82;;;3.97;;
63050;SDS011;49136;47.416;19.402;2023-02-28T09:08:27;3.47;;;1.65;;
63050;SDS011;49136;47.416;19.402;2023-02-28T09:10:55;2.67;;;2.17;;
63050;SDS011;49136;47.416;19.402;2023-02-28T09:13:22;5.25;;;2.92;;
63050;SDS011;49136;47.416;19.402;2023-02-28T09:15:48;4.97;;;2.65;;
63050;SDS011;49136;47.416;19.402;2023-02-28T09:18:14;7.07;;;3.42;;
63050;SDS011;49136;47.416;19.402;2023-02-28T09:20:40;6.80;;;2.97;;
63050;SDS011;49136;47.416;19.402;2023-02-28T09:23:07;8.35;;;3.15;;
63050;SDS011;49136;47.416;19.402;2023-02-28T09:25:33;6.40;;;2.95;;
63050;SDS011;49136;47.416;19.402;2023-02-28T09:27:59;4.30;;;2.72;;
63050;SDS011;49136;47.416;19.402;2023-02-28T09:30:25;3.67;;;2.53;;
63050;SDS011;49136;47.416;19.402;2023-02-28T09:32:50;9.82;;;3.95;;
63050;SDS011;49136;47.416;19.402;2023-02-28T09:35:26;2.90;;;1.85;;
63050;SDS011;49136;47.416;19.402;2023-02-28T09:37:51;9.63;;;2.63;;
63050;SDS011;49136;47.416;19.402;2023-02-28T09:40:22;6.93;;;4.28;;
63050;SDS011;49136;47.416;19.402;2023-02-28T09:42:49;4.88;;;2.75;;
63050;SDS011;49136;47.416;19.402;2023-02-28T09:47:56;8.60;;;3.67;;
63050;SDS011;49136;47.416;19.402;2023-02-28T09:50:36;3.22;;;2.38;;
63050;SDS011;49136;47.416;19.402;2023-02-28T10:07:00;8.70;;;3.60;;
63050;SDS011;49136;47.416;19.402;2023-02-28T10:09:29;4.18;;;2.67;;
63050;SDS011;49136;47.416;19.402;2023-02-28T10:11:59;5.97;;;2.70;;
63050;SDS011;49136;47.416;19.402;2023-02-28T10:14:29;6.82;;;2.50;;
63050;SDS011;49136;47.416;19.402;2023-02-28T10:16:58;8.38;;;3.83;;
63050;SDS011;49136;47.416;19.402;2023-02-28T10:19:30;8.60;;;3.45;;
63050;SDS011;49136;47.416;19.402;2023-02-28T10:24:49;7.22;;;3.05;;
63050;SDS011;49136;47.416;19.402;2023-02-28T10:27:23;5.93;;;3.05;;
63050;SDS011;49136;47.416;19.402;2023-02-28T10:29:51;6.50;;;3.07;;
63050;SDS011;49136;47.416;19.402;2023-02-28T10:32:18;6.30;;;3.65;;
63050;SDS011;49136;47.416;19.402;2023-02-28T10:34:50;6.40;;;3.58;;
63050;SDS011;49136;47.416;19.402;2023-02-28T10:37:19;12.27;;;4.78;;
63050;SDS011;49136;47.416;19.402;2023-02-28T10:39:45;9.73;;;4.68;;
63050;SDS011;49136;47.416;19.402;2023-02-28T10:42:21;20.88;;;6.63;;
63050;SDS011;49136;47.416;19.402;2023-02-28T10:45:14;6.75;;;4.20;;
63050;SDS011;49136;47.416;19.402;2023-02-28T10:48:01;7.15;;;3.25;;
63050;SDS011;49136;47.416;19.402;2023-02-28T10:55:40;5.80;;;3.30;;
63050;SDS011;49136;47.416;19.402;2023-02-28T10:58:27;7.68;;;4.43;;
63050;SDS011;49136;47.416;19.402;2023-02-28T11:00:53;6.68;;;3.20;;
63050;SDS011;49136;47.416;19.402;2023-02-28T11:03:29;9.18;;;3.28;;
63050;SDS011;49136;47.416;19.402;2023-02-28T11:05:57;7.13;;;3.33;;
63050;SDS011;49136;47.416;19.402;2023-02-28T11:08:22;5.72;;;3.03;;
63050;SDS011;49136;47.416;19.402;2023-02-28T11:10:58;8.20;;;3.88;;
63050;SDS011;49136;47.416;19.402;2023-02-28T11:13:33;4.93;;;2.92;;
63050;SDS011;49136;47.416;19.402;2023-02-28T11:16:03;10.48;;;4.00;;
63050;SDS011;49136;47.416;19.402;2023-02-28T11:18:35;8.30;;;4.65;;
63050;SDS011;49136;47.416;19.402;2023-02-28T11:21:09;7.57;;;3.58;;
63050;SDS011;49136;47.416;19.402;2023-02-28T11:23:42;5.93;;;3.42;;
63050;SDS011;49136;47.416;19.402;2023-02-28T11:26:08;6.90;;;2.92;;
63050;SDS011;49136;47.416;19.402;2023-02-28T11:28:37;8.13;;;3.47;;
63050;SDS011;49136;47.416;19.402;2023-02-28T11:33:41;8.93;;;3.85;;
63050;SDS011;49136;47.416;19.402;2023-02-28T11:36:14;10.43;;;3.85;;
63050;SDS011;49136;47.416;19.402;2023-02-28T11:38:40;11.32;;;5.45;;
63050;SDS011;49136;47.416;19.402;2023-02-28T11:43:57;9.07;;;4.03;;
63050;SDS011;49136;47.416;19.402;2023-02-28T11:54:27;6.28;;;3.13;;
63050;SDS011;49136;47.416;19.402;2023-02-28T11:57:25;8.13;;;3.45;;
63050;SDS011;49136;47.416;19.402;2023-02-28T11:59:59;8.70;;;3.95;;
63050;SDS011;49136;47.416;19.402;2023-02-28T12:02:55;6.68;;;3.60;;
63050;SDS011;49136;47.416;19.402;2023-02-28T12:05:42;7.78;;;3.35;;
63050;SDS011;49136;47.416;19.402;2023-02-28T12:09:27;5.13;;;3.28;;
63050;SDS011;49136;47.416;19.402;2023-02-28T12:19:28;6.68;;;3.67;;
63050;SDS011;49136;47.416;19.402;2023-02-28T12:27:31;10.75;;;5.50;;
63050;SDS011;49136;47.416;19.402;2023-02-28T12:30:04;10.05;;;3.92;;
63050;SDS011;49136;47.416;19.402;2023-02-28T12:33:04;8.60;;;4.28;;
63050;SDS011;49136;47.416;19.402;2023-02-28T12:35:33;9.45;;;4.38;;
63050;SDS011;49136;47.416;19.402;2023-02-28T12:38:06;5.85;;;3.35;;
63050;SDS011;49136;47.416;19.402;2023-02-28T12:40:43;11.52;;;4.93;;
63050;SDS011;49136;47.416;19.402;2023-02-28T12:43:09;5.60;;;3.10;;
63050;SDS011;49136;47.416;19.402;2023-02-28T12:45:55;8.02;;;4.70;;
63050;SDS011;49136;47.416;19.402;2023-02-28T12:48:26;11.05;;;4.10;;
63050;SDS011;49136;47.416;19.402;2023-02-28T12:50:57;10.48;;;4.72;;
63050;SDS011;49136;47.416;19.402;2023-02-28T12:53:28;9.02;;;3.83;;
63050;SDS011;49136;47.416;19.402;2023-02-28T12:58:42;9.82;;;4.18;;
63050;SDS011;49136;47.416;19.402;2023-02-28T13:09:51;7.75;;;2.78;;
63050;SDS011;49136;47.416;19.402;2023-02-28T13:12:19;13.65;;;5.10;;
63050;SDS011;49136;47.416;19.402;2023-02-28T13:14:45;11.15;;;3.45;;
63050;SDS011;49136;47.416;19.402;2023-02-28T13:17:11;13.75;;;4.75;;
63050;SDS011;49136;47.416;19.402;2023-02-28T13:24:54;13.77;;;4.75;;
63050;SDS011;49136;47.416;19.402;2023-02-28T13:27:21;5.95;;;3.92;;
63050;SDS011;49136;47.416;19.402;2023-02-28T13:29:50;13.88;;;3.63;;
63050;SDS011;49136;47.416;19.402;2023-02-28T13:32:31;6.00;;;2.30;;
63050;SDS011;49136;47.416;19.402;2023-02-28T13:50:28;8.40;;;4.25;;
63050;SDS011;49136;47.416;19.402;2023-02-28T13:56:01;7.40;;;4.17;;
63050;SDS011;49136;47.416;19.402;2023-02-28T14:07:02;18.23;;;5.13;;
63050;SDS011;49136;47.416;19.402;2023-02-28T14:09:30;11.30;;;5.07;;
63050;SDS011;49136;47.416;19.402;2023-02-28T14:11:56;13.93;;;5.45;;
63050;SDS011;49136;47.416;19.402;2023-02-28T14:17:14;13.63;;;5.10;;
63050;SDS011;49136;47.416;19.402;2023-02-28T14:19:43;19.77;;;8.38;;
63050;SDS011;49136;47.416;19.402;2023-02-28T14:27:45;17.15;;;5.30;;
63050;SDS011;49136;47.416;19.402;2023-02-28T14:30:29;11.63;;;4.60;;
63050;SDS011;49136;47.416;19.402;2023-02-28T14:38:20;8.07;;;2.95;;
63050;SDS011;49136;47.416;19.402;2023-02-28T14:40:49;9.95;;;4.95;;
63050;SDS011;49136;47.416;19.402;2023-02-28T14:43:22;11.15;;;4.82;;
63050;SDS011;49136;47.416;19.402;2023-02-28T14:45:50;10.20;;;4.82;;
63050;SDS011;49136;47.416;19.402;2023-02-28T14:48:18;13.13;;;4.57;;
63050;SDS011;49136;47.416;19.402;2023-02-28T14:50:48;13.15;;;4.95;;
63050;SDS011;49136;47.416;19.402;2023-02-28T14:53:36;8.57;;;4.13;;
63050;SDS011;49136;47.416;19.402;2023-02-28T14:56:02;16.98;;;5.00;;
63050;SDS011;49136;47.416;19.402;2023-02-28T14:58:30;7.63;;;4.50;;
63050;SDS011;49136;47.416;19.402;2023-02-28T15:00:59;7.88;;;4.78;;
63050;SDS011;49136;47.416;19.402;2023-02-28T15:06:01;7.85;;;3.83;;
63050;SDS011;49136;47.416;19.402;2023-02-28T15:08:30;9.15;;;4.43;;
63050;SDS011;49136;47.416;19.402;2023-02-28T15:16:36;8.07;;;3.90;;
63050;SDS011;49136;47.416;19.402;2023-02-28T15:19:20;9.13;;;4.15;;
63050;SDS011;49136;47.416;19.402;2023-02-28T15:22:10;11.95;;;4.68;;
63050;SDS011;49136;47.416;19.402;2023-02-28T15:24:41;16.90;;;5.32;;
63050;SDS011;49136;47.416;19.402;2023-02-28T15:27:14;13.68;;;4.85;;
63050;SDS011;49136;47.416;19.402;2023-02-28T15:29:46;10.70;;;5.00;;
63050;SDS011;49136;47.416;19.402;2023-02-28T15:32:37;9.02;;;4.43;;
63050;SDS011;49136;47.416;19.402;2023-02-28T15:40:49;24.90;;;12.05;;
63050;SDS011;49136;47.416;19.402;2023-02-28T15:51:32;12.40;;;6.00;;
63050;SDS011;49136;47.416;19.402;2023-02-28T15:54:00;14.88;;;6.88;;
63050;SDS011;49136;47.416;19.402;2023-02-28T15:56:45;8.73;;;5.05;;
63050;SDS011;49136;47.416;19.402;2023-02-28T15:59:20;12.05;;;4.53;;
63050;SDS011;49136;47.416;19.402;2023-02-28T16:02:01;7.95;;;4.05;;
63050;SDS011;49136;47.416;19.402;2023-02-28T16:04:54;14.27;;;5.93;;
63050;SDS011;49136;47.416;19.402;2023-02-28T16:07:40;11.35;;;7.70;;
63050;SDS011;49136;47.416;19.402;2023-02-28T16:10:09;14.15;;;5.05;;
63050;SDS011;49136;47.416;19.402;2023-02-28T16:12:36;11.73;;;4.63;;
63050;SDS011;49136;47.416;19.402;2023-02-28T16:15:08;12.75;;;5.00;;
63050;SDS011;49136;47.416;19.402;2023-02-28T16:17:42;13.63;;;4.72;;
63050;SDS011;49136;47.416;19.402;2023-02-28T16:22:41;18.38;;;6.70;;
63050;SDS011;49136;47.416;19.402;2023-02-28T16:25:10;13.77;;;5.45;;
63050;SDS011;49136;47.416;19.402;2023-02-28T16:27:37;13.20;;;5.47;;
63050;SDS011;49136;47.416;19.402;2023-02-28T16:30:04;13.30;;;5.90;;
63050;SDS011;49136;47.416;19.402;2023-02-28T16:32:31;18.08;;;6.90;;
63050;SDS011;49136;47.416;19.402;2023-02-28T16:35:00;18.45;;;6.28;;
63050;SDS011;49136;47.416;19.402;2023-02-28T16:37:26;13.82;;;6.20;;
63050;SDS011;49136;47.416;19.402;2023-02-28T16:39:52;16.17;;;7.90;;
63050;SDS011;49136;47.416;19.402;2023-02-28T16:42:21;11.60;;;5.30;;
63050;SDS011;49136;47.416;19.402;2023-02-28T16:44:50;11.90;;;5.93;;
63050;SDS011;49136;47.416;19.402;2023-02-28T16:47:17;10.82;;;6.40;;
63050;SDS011;49136;47.416;19.402;2023-02-28T16:49:43;13.95;;;6.00;;
63050;SDS011;49136;47.416;19.402;2023-02-28T16:52:09;15.77;;;6.15;;
63050;SDS011;49136;47.416;19.402;2023-02-28T16:54:36;14.23;;;6.38;;
63050;SDS011;49136;47.416;19.402;2023-02-28T16:57:04;22.10;;;7.60;;
63050;SDS011;49136;47.416;19.402;2023-02-28T16:59:30;10.20;;;5.75;;
63050;SDS011;49136;47.416;19.402;2023-02-28T17:01:57;15.45;;;5.72;;
63050;SDS011;49136;47.416;19.402;2023-02-28T17:04:23;15.65;;;6.00;;
63050;SDS011;49136;47.416;19.402;2023-02-28T17:06:50;17.67;;;7.97;;
63050;SDS011;49136;47.416;19.402;2023-02-28T17:09:20;10.00;;;5.40;;
63050;SDS011;49136;47.416;19.402;2023-02-28T17:11:47;30.02;;;11.07;;
63050;SDS011;49136;47.416;19.402;2023-02-28T17:14:13;16.65;;;8.07;;
63050;SDS011;49136;47.416;19.402;2023-02-28T17:16:40;17.05;;;6.25;;
63050;SDS011;49136;47.416;19.402;2023-02-28T17:19:11;16.90;;;8.10;;
63050;SDS011;49136;47.416;19.402;2023-02-28T17:21:39;23.63;;;8.50;;